sensor_id;sensor_type;location;lat;lon;timestamp;temperature;humidity
37002;DHT22;22913;51.910;8.374;2022-07-23T00:00:27;16.80;99.90
37002;DHT22;22913;51.910;8.374;2022-07-23T00:03:13;16.70;99.90
37002;DHT22;22913;51.910;8.374;2022-07-23T00:05:58;16.80;99.90
37002;DHT22;22913;51.910;8.374;2022-07-23T00:08:45;16.80;99.90
37002;DHT22;22913;51.910;8.374;2022-07-23T00:11:31;16.70;99.90
37002;DHT22;22913;51.910;8.374;2022-07-23T00:14:17;16.70;99.90
37002;DHT22;22913;51.910;8.374;2022-07-23T00:17:02;16.70;99.90
37002;DHT22;22913;51.910;8.374;2022-07-23T00:19:48;16.70;99.90
37002;DHT22;22913;51.910;8.374;2022-07-23T00:22:34;16.70;99.90
37002;DHT22;22913;51.910;8.374;2022-07-23T00:25:22;16.70;99.90
37002;DHT22;22913;51.910;8.374;2022-07-23T00:28:08;16.80;99.90
37002;DHT22;22913;51.910;8.374;2022-07-23T00:30:53;16.80;99.90
37002;DHT22;22913;51.910;8.374;2022-07-23T00:33:39;16.70;99.90
37002;DHT22;22913;51.910;8.374;2022-07-23T00:36:25;16.70;99.90
37002;DHT22;22913;51.910;8.374;2022-07-23T00:39:11;16.80;99.90
37002;DHT22;22913;51.910;8.374;2022-07-23T00:41:58;16.80;99.90
37002;DHT22;22913;51.910;8.374;2022-07-23T00:44:44;16.80;99.90
37002;DHT22;22913;51.910;8.374;2022-07-23T00:47:31;16.80;99.90
37002;DHT22;22913;51.910;8.374;2022-07-23T00:50:17;16.70;99.90
37002;DHT22;22913;51.910;8.374;2022-07-23T00:53:02;16.80;99.90
37002;DHT22;22913;51.910;8.374;2022-07-23T00:55:49;16.80;99.90
37002;DHT22;22913;51.910;8.374;2022-07-23T00:58:37;16.70;99.90
37002;DHT22;22913;51.910;8.374;2022-07-23T01:01:24;16.70;99.90
37002;DHT22;22913;51.910;8.374;2022-07-23T01:04:10;16.60;99.90
37002;DHT22;22913;51.910;8.374;2022-07-23T01:06:56;16.60;99.90
37002;DHT22;22913;51.910;8.374;2022-07-23T01:09:42;16.60;99.90
37002;DHT22;22913;51.910;8.374;2022-07-23T01:12:28;16.60;99.90
37002;DHT22;22913;51.910;8.374;2022-07-23T01:15:15;16.60;99.90
37002;DHT22;22913;51.910;8.374;2022-07-23T01:18:00;16.60;99.90
37002;DHT22;22913;51.910;8.374;2022-07-23T01:20:46;16.60;99.90
37002;DHT22;22913;51.910;8.374;2022-07-23T01:23:33;16.70;99.90
37002;DHT22;22913;51.910;8.374;2022-07-23T01:26:18;16.70;99.90
37002;DHT22;22913;51.910;8.374;2022-07-23T01:29:04;16.70;99.90
37002;DHT22;22913;51.910;8.374;2022-07-23T01:31:50;16.60;99.90
37002;DHT22;22913;51.910;8.374;2022-07-23T01:34:36;16.60;99.90
37002;DHT22;22913;51.910;8.374;2022-07-23T01:37:21;16.60;99.90
37002;DHT22;22913;51.910;8.374;2022-07-23T01:40:08;16.50;99.90
37002;DHT22;22913;51.910;8.374;2022-07-23T01:42:54;16.50;99.90
37002;DHT22;22913;51.910;8.374;2022-07-23T01:45:40;16.50;99.90
37002;DHT22;22913;51.910;8.374;2022-07-23T01:48:25;16.40;99.90
37002;DHT22;22913;51.910;8.374;2022-07-23T01:51:11;16.40;99.90
37002;DHT22;22913;51.910;8.374;2022-07-23T01:53:57;16.40;99.90
37002;DHT22;22913;51.910;8.374;2022-07-23T01:56:44;16.40;99.90
37002;DHT22;22913;51.910;8.374;2022-07-23T01:59:29;16.40;99.90
37002;DHT22;22913;51.910;8.374;2022-07-23T02:02:14;16.30;99.90
37002;DHT22;22913;51.910;8.374;2022-07-23T02:05:00;16.30;99.90
37002;DHT22;22913;51.910;8.374;2022-07-23T02:07:46;16.20;99.90
37002;DHT22;22913;51.910;8.374;2022-07-23T02:10:31;16.20;99.90
37002;DHT22;22913;51.910;8.374;2022-07-23T02:13:18;16.20;99.90
37002;DHT22;22913;51.910;8.374;2022-07-23T02:16:04;16.20;99.90
37002;DHT22;22913;51.910;8.374;2022-07-23T02:18:50;16.20;99.90
37002;DHT22;22913;51.910;8.374;2022-07-23T02:21:36;16.20;99.90
37002;DHT22;22913;51.910;8.374;2022-07-23T02:24:22;16.20;99.90
37002;DHT22;22913;51.910;8.374;2022-07-23T02:27:07;16.20;99.90
37002;DHT22;22913;51.910;8.374;2022-07-23T02:29:54;16.20;99.90
37002;DHT22;22913;51.910;8.374;2022-07-23T02:32:40;16.20;99.90
37002;DHT22;22913;51.910;8.374;2022-07-23T02:35:25;16.20;99.90
37002;DHT22;22913;51.910;8.374;2022-07-23T02:38:11;16.20;99.90
37002;DHT22;22913;51.910;8.374;2022-07-23T02:40:57;16.20;99.90
37002;DHT22;22913;51.910;8.374;2022-07-23T02:43:42;16.10;99.90
37002;DHT22;22913;51.910;8.374;2022-07-23T02:46:30;16.10;99.90
37002;DHT22;22913;51.910;8.374;2022-07-23T02:49:15;16.10;99.90
37002;DHT22;22913;51.910;8.374;2022-07-23T02:52:01;16.10;99.90
37002;DHT22;22913;51.910;8.374;2022-07-23T02:54:47;16.10;99.90
37002;DHT22;22913;51.910;8.374;2022-07-23T02:57:32;16.00;99.90
37002;DHT22;22913;51.910;8.374;2022-07-23T03:00:18;16.10;99.90
37002;DHT22;22913;51.910;8.374;2022-07-23T03:03:05;16.10;99.90
37002;DHT22;22913;51.910;8.374;2022-07-23T03:05:50;16.00;99.90
37002;DHT22;22913;51.910;8.374;2022-07-23T03:08:36;15.90;99.90
37002;DHT22;22913;51.910;8.374;2022-07-23T03:11:22;15.90;99.90
37002;DHT22;22913;51.910;8.374;2022-07-23T03:14:07;15.90;99.90
37002;DHT22;22913;51.910;8.374;2022-07-23T03:16:53;15.80;99.90
37002;DHT22;22913;51.910;8.374;2022-07-23T03:19:40;15.70;99.90
37002;DHT22;22913;51.910;8.374;2022-07-23T03:22:25;15.70;99.90
37002;DHT22;22913;51.910;8.374;2022-07-23T03:25:11;15.70;99.90
37002;DHT22;22913;51.910;8.374;2022-07-23T03:27:57;15.70;99.90
37002;DHT22;22913;51.910;8.374;2022-07-23T03:30:42;15.60;99.90
37002;DHT22;22913;51.910;8.374;2022-07-23T03:33:30;15.60;99.90
37002;DHT22;22913;51.910;8.374;2022-07-23T03:36:17;15.60;99.90
37002;DHT22;22913;51.910;8.374;2022-07-23T03:39:03;15.60;99.90
37002;DHT22;22913;51.910;8.374;2022-07-23T03:41:48;15.50;99.90
37002;DHT22;22913;51.910;8.374;2022-07-23T03:44:34;15.50;99.90
37002;DHT22;22913;51.910;8.374;2022-07-23T03:47:21;15.50;99.90
37002;DHT22;22913;51.910;8.374;2022-07-23T03:50:08;15.40;99.90
37002;DHT22;22913;51.910;8.374;2022-07-23T03:52:55;15.40;99.90
37002;DHT22;22913;51.910;8.374;2022-07-23T03:55:40;15.40;99.90
37002;DHT22;22913;51.910;8.374;2022-07-23T03:58:26;15.40;99.90
37002;DHT22;22913;51.910;8.374;2022-07-23T04:01:12;15.30;99.90
37002;DHT22;22913;51.910;8.374;2022-07-23T04:03:58;15.30;99.90
37002;DHT22;22913;51.910;8.374;2022-07-23T04:06:43;15.30;99.90
37002;DHT22;22913;51.910;8.374;2022-07-23T04:09:30;15.30;99.90
37002;DHT22;22913;51.910;8.374;2022-07-23T04:12:16;15.20;99.90
37002;DHT22;22913;51.910;8.374;2022-07-23T04:15:01;15.20;99.90
37002;DHT22;22913;51.910;8.374;2022-07-23T04:17:47;15.20;99.90
37002;DHT22;22913;51.910;8.374;2022-07-23T04:20:33;15.20;99.90
37002;DHT22;22913;51.910;8.374;2022-07-23T04:23:19;15.20;99.90
37002;DHT22;22913;51.910;8.374;2022-07-23T04:26:06;15.20;99.90
37002;DHT22;22913;51.910;8.374;2022-07-23T04:28:51;15.20;99.90
37002;DHT22;22913;51.910;8.374;2022-07-23T04:31:37;15.20;99.90
37002;DHT22;22913;51.910;8.374;2022-07-23T04:34:23;15.20;99.90
37002;DHT22;22913;51.910;8.374;2022-07-23T04:37:10;15.20;99.90
37002;DHT22;22913;51.910;8.374;2022-07-23T04:39:56;15.20;99.90
37002;DHT22;22913;51.910;8.374;2022-07-23T04:42:43;15.20;99.90
37002;DHT22;22913;51.910;8.374;2022-07-23T04:45:29;15.20;99.90
37002;DHT22;22913;51.910;8.374;2022-07-23T04:48:14;15.20;99.90
37002;DHT22;22913;51.910;8.374;2022-07-23T04:51:00;15.20;99.90
37002;DHT22;22913;51.910;8.374;2022-07-23T04:53:46;15.20;99.90
37002;DHT22;22913;51.910;8.374;2022-07-23T04:56:32;15.20;99.90
37002;DHT22;22913;51.910;8.374;2022-07-23T04:59:19;15.20;99.90
37002;DHT22;22913;51.910;8.374;2022-07-23T05:02:04;15.30;99.90
37002;DHT22;22913;51.910;8.374;2022-07-23T05:04:50;15.30;99.90
37002;DHT22;22913;51.910;8.374;2022-07-23T05:07:35;15.30;99.90
37002;DHT22;22913;51.910;8.374;2022-07-23T05:10:21;15.30;99.90
37002;DHT22;22913;51.910;8.374;2022-07-23T05:13:07;15.40;99.90
37002;DHT22;22913;51.910;8.374;2022-07-23T05:15:54;15.40;99.90
37002;DHT22;22913;51.910;8.374;2022-07-23T05:18:39;15.40;99.90
37002;DHT22;22913;51.910;8.374;2022-07-23T05:21:25;15.50;99.90
37002;DHT22;22913;51.910;8.374;2022-07-23T05:24:10;15.50;99.90
37002;DHT22;22913;51.910;8.374;2022-07-23T05:26:56;15.60;99.90
37002;DHT22;22913;51.910;8.374;2022-07-23T05:29:42;15.60;99.90
37002;DHT22;22913;51.910;8.374;2022-07-23T05:32:31;15.70;99.90
37002;DHT22;22913;51.910;8.374;2022-07-23T05:35:16;15.70;99.90
37002;DHT22;22913;51.910;8.374;2022-07-23T05:38:02;15.80;99.90
37002;DHT22;22913;51.910;8.374;2022-07-23T05:40:47;15.80;99.90
37002;DHT22;22913;51.910;8.374;2022-07-23T05:43:33;15.90;99.90
37002;DHT22;22913;51.910;8.374;2022-07-23T05:46:19;15.90;99.90
37002;DHT22;22913;51.910;8.374;2022-07-23T05:49:06;16.00;99.90
37002;DHT22;22913;51.910;8.374;2022-07-23T05:51:51;16.10;99.90
37002;DHT22;22913;51.910;8.374;2022-07-23T05:54:37;16.10;99.90
37002;DHT22;22913;51.910;8.374;2022-07-23T05:57:22;16.20;99.90
37002;DHT22;22913;51.910;8.374;2022-07-23T06:00:09;16.20;99.90
37002;DHT22;22913;51.910;8.374;2022-07-23T06:02:55;16.20;99.90
37002;DHT22;22913;51.910;8.374;2022-07-23T06:05:42;16.30;99.90
37002;DHT22;22913;51.910;8.374;2022-07-23T06:08:28;16.40;99.90
37002;DHT22;22913;51.910;8.374;2022-07-23T06:11:14;16.40;99.90
37002;DHT22;22913;51.910;8.374;2022-07-23T06:13:59;16.50;99.90
37002;DHT22;22913;51.910;8.374;2022-07-23T06:16:45;16.50;99.90
37002;DHT22;22913;51.910;8.374;2022-07-23T06:19:31;16.60;99.90
37002;DHT22;22913;51.910;8.374;2022-07-23T06:22:18;16.60;99.90
37002;DHT22;22913;51.910;8.374;2022-07-23T06:25:05;16.70;99.90
37002;DHT22;22913;51.910;8.374;2022-07-23T06:27:51;16.70;99.90
37002;DHT22;22913;51.910;8.374;2022-07-23T06:30:36;16.80;99.90
37002;DHT22;22913;51.910;8.374;2022-07-23T06:33:22;16.90;99.90
37002;DHT22;22913;51.910;8.374;2022-07-23T06:36:08;16.90;99.90
37002;DHT22;22913;51.910;8.374;2022-07-23T06:38:55;16.90;99.90
37002;DHT22;22913;51.910;8.374;2022-07-23T06:41:41;17.00;99.90
37002;DHT22;22913;51.910;8.374;2022-07-23T06:44:27;17.00;99.90
37002;DHT22;22913;51.910;8.374;2022-07-23T06:47:12;16.90;99.90
37002;DHT22;22913;51.910;8.374;2022-07-23T06:49:58;17.00;99.90
37002;DHT22;22913;51.910;8.374;2022-07-23T06:52:44;17.00;99.90
37002;DHT22;22913;51.910;8.374;2022-07-23T06:55:31;17.00;99.90
37002;DHT22;22913;51.910;8.374;2022-07-23T06:58:17;17.00;99.90
37002;DHT22;22913;51.910;8.374;2022-07-23T07:01:03;17.10;99.90
37002;DHT22;22913;51.910;8.374;2022-07-23T07:03:49;17.20;99.90
37002;DHT22;22913;51.910;8.374;2022-07-23T07:06:35;17.20;99.90
37002;DHT22;22913;51.910;8.374;2022-07-23T07:09:21;17.20;99.90
37002;DHT22;22913;51.910;8.374;2022-07-23T07:12:08;17.40;99.90
37002;DHT22;22913;51.910;8.374;2022-07-23T07:14:53;17.40;99.90
37002;DHT22;22913;51.910;8.374;2022-07-23T07:17:39;17.50;99.90
37002;DHT22;22913;51.910;8.374;2022-07-23T07:20:26;17.50;99.90
37002;DHT22;22913;51.910;8.374;2022-07-23T07:23:12;17.50;99.90
37002;DHT22;22913;51.910;8.374;2022-07-23T07:25:58;17.60;99.90
37002;DHT22;22913;51.910;8.374;2022-07-23T07:28:45;17.70;99.90
37002;DHT22;22913;51.910;8.374;2022-07-23T07:31:31;17.80;99.90
37002;DHT22;22913;51.910;8.374;2022-07-23T07:34:17;17.80;99.90
37002;DHT22;22913;51.910;8.374;2022-07-23T07:37:02;18.00;99.90
37002;DHT22;22913;51.910;8.374;2022-07-23T07:39:48;18.10;99.90
37002;DHT22;22913;51.910;8.374;2022-07-23T07:42:34;18.30;99.90
37002;DHT22;22913;51.910;8.374;2022-07-23T07:45:22;18.30;99.90
37002;DHT22;22913;51.910;8.374;2022-07-23T07:48:08;18.40;99.90
37002;DHT22;22913;51.910;8.374;2022-07-23T07:50:53;18.50;99.90
37002;DHT22;22913;51.910;8.374;2022-07-23T07:53:39;18.50;99.90
37002;DHT22;22913;51.910;8.374;2022-07-23T07:56:25;18.60;99.90
37002;DHT22;22913;51.910;8.374;2022-07-23T07:59:10;18.60;99.90
37002;DHT22;22913;51.910;8.374;2022-07-23T08:01:57;18.70;99.90
37002;DHT22;22913;51.910;8.374;2022-07-23T08:04:43;18.70;99.90
37002;DHT22;22913;51.910;8.374;2022-07-23T08:07:28;18.80;99.90
37002;DHT22;22913;51.910;8.374;2022-07-23T08:10:14;18.90;99.90
37002;DHT22;22913;51.910;8.374;2022-07-23T08:13:00;19.10;99.90
37002;DHT22;22913;51.910;8.374;2022-07-23T08:15:45;19.10;99.90
37002;DHT22;22913;51.910;8.374;2022-07-23T08:18:32;19.20;99.90
37002;DHT22;22913;51.910;8.374;2022-07-23T08:21:18;19.30;99.90
37002;DHT22;22913;51.910;8.374;2022-07-23T08:24:04;19.30;99.90
37002;DHT22;22913;51.910;8.374;2022-07-23T08:26:49;19.30;99.90
37002;DHT22;22913;51.910;8.374;2022-07-23T08:29:35;19.40;99.90
37002;DHT22;22913;51.910;8.374;2022-07-23T08:32:21;19.40;99.90
37002;DHT22;22913;51.910;8.374;2022-07-23T08:35:08;19.30;99.90
37002;DHT22;22913;51.910;8.374;2022-07-23T08:37:54;19.30;99.90
37002;DHT22;22913;51.910;8.374;2022-07-23T08:40:41;19.30;99.90
37002;DHT22;22913;51.910;8.374;2022-07-23T08:43:29;19.60;99.90
37002;DHT22;22913;51.910;8.374;2022-07-23T08:46:18;19.70;99.90
37002;DHT22;22913;51.910;8.374;2022-07-23T08:49:04;19.90;99.90
37002;DHT22;22913;51.910;8.374;2022-07-23T08:51:52;20.00;99.90
37002;DHT22;22913;51.910;8.374;2022-07-23T08:54:37;20.10;99.90
37002;DHT22;22913;51.910;8.374;2022-07-23T08:57:23;20.00;99.90
37002;DHT22;22913;51.910;8.374;2022-07-23T09:00:10;20.00;99.90
37002;DHT22;22913;51.910;8.374;2022-07-23T09:02:56;20.00;99.90
37002;DHT22;22913;51.910;8.374;2022-07-23T09:05:42;20.10;99.90
37002;DHT22;22913;51.910;8.374;2022-07-23T09:08:36;20.10;99.90
37002;DHT22;22913;51.910;8.374;2022-07-23T09:11:22;20.30;99.90
37002;DHT22;22913;51.910;8.374;2022-07-23T09:14:07;20.40;99.90
37002;DHT22;22913;51.910;8.374;2022-07-23T09:16:53;20.40;99.90
37002;DHT22;22913;51.910;8.374;2022-07-23T09:19:39;20.30;99.90
37002;DHT22;22913;51.910;8.374;2022-07-23T09:22:26;20.30;99.90
37002;DHT22;22913;51.910;8.374;2022-07-23T09:25:15;20.30;99.90
37002;DHT22;22913;51.910;8.374;2022-07-23T09:28:01;20.30;99.90
37002;DHT22;22913;51.910;8.374;2022-07-23T09:30:51;20.50;99.90
37002;DHT22;22913;51.910;8.374;2022-07-23T09:33:36;20.70;99.90
37002;DHT22;22913;51.910;8.374;2022-07-23T09:36:29;20.70;99.90
37002;DHT22;22913;51.910;8.374;2022-07-23T09:39:21;20.70;99.90
37002;DHT22;22913;51.910;8.374;2022-07-23T09:42:15;20.80;99.90
37002;DHT22;22913;51.910;8.374;2022-07-23T09:45:02;20.80;99.90
37002;DHT22;22913;51.910;8.374;2022-07-23T09:47:48;20.90;99.90
37002;DHT22;22913;51.910;8.374;2022-07-23T09:50:34;21.10;99.90
37002;DHT22;22913;51.910;8.374;2022-07-23T09:53:24;21.30;99.90
37002;DHT22;22913;51.910;8.374;2022-07-23T09:56:11;21.40;99.90
37002;DHT22;22913;51.910;8.374;2022-07-23T09:59:00;21.40;99.90
37002;DHT22;22913;51.910;8.374;2022-07-23T10:01:50;21.40;99.90
37002;DHT22;22913;51.910;8.374;2022-07-23T10:04:37;21.40;99.90
37002;DHT22;22913;51.910;8.374;2022-07-23T10:07:23;21.40;99.90
37002;DHT22;22913;51.910;8.374;2022-07-23T10:10:11;21.40;99.90
37002;DHT22;22913;51.910;8.374;2022-07-23T10:12:59;21.50;99.90
37002;DHT22;22913;51.910;8.374;2022-07-23T10:16:07;21.70;99.90
37002;DHT22;22913;51.910;8.374;2022-07-23T10:18:54;21.70;99.90
37002;DHT22;22913;51.910;8.374;2022-07-23T10:21:44;21.80;99.90
37002;DHT22;22913;51.910;8.374;2022-07-23T10:24:41;21.80;99.90
37002;DHT22;22913;51.910;8.374;2022-07-23T10:30:43;22.20;99.90
37002;DHT22;22913;51.910;8.374;2022-07-23T10:33:41;22.60;99.90
37002;DHT22;22913;51.910;8.374;2022-07-23T10:36:37;22.70;99.90
37002;DHT22;22913;51.910;8.374;2022-07-23T10:39:29;22.80;99.90
37002;DHT22;22913;51.910;8.374;2022-07-23T10:42:16;23.00;99.90
37002;DHT22;22913;51.910;8.374;2022-07-23T10:45:22;23.20;99.90
37002;DHT22;22913;51.910;8.374;2022-07-23T10:48:13;23.20;99.90
37002;DHT22;22913;51.910;8.374;2022-07-23T10:51:09;23.40;99.90
37002;DHT22;22913;51.910;8.374;2022-07-23T10:53:57;23.40;99.90
37002;DHT22;22913;51.910;8.374;2022-07-23T10:57:06;23.50;99.90
37002;DHT22;22913;51.910;8.374;2022-07-23T11:00:23;23.50;99.90
37002;DHT22;22913;51.910;8.374;2022-07-23T11:03:30;23.60;99.90
37002;DHT22;22913;51.910;8.374;2022-07-23T11:06:19;23.70;99.90
37002;DHT22;22913;51.910;8.374;2022-07-23T11:09:23;23.70;99.90
37002;DHT22;22913;51.910;8.374;2022-07-23T11:12:33;23.60;99.90
37002;DHT22;22913;51.910;8.374;2022-07-23T11:15:19;23.50;99.90
37002;DHT22;22913;51.910;8.374;2022-07-23T11:18:05;23.50;99.90
37002;DHT22;22913;51.910;8.374;2022-07-23T11:20:51;23.60;99.90
37002;DHT22;22913;51.910;8.374;2022-07-23T11:23:58;23.60;99.90
37002;DHT22;22913;51.910;8.374;2022-07-23T11:26:47;23.70;99.90
37002;DHT22;22913;51.910;8.374;2022-07-23T11:29:47;23.70;99.90
37002;DHT22;22913;51.910;8.374;2022-07-23T11:32:37;23.90;99.90
37002;DHT22;22913;51.910;8.374;2022-07-23T11:35:28;24.20;99.90
37002;DHT22;22913;51.910;8.374;2022-07-23T11:38:18;24.50;99.90
37002;DHT22;22913;51.910;8.374;2022-07-23T11:41:05;24.80;99.90
37002;DHT22;22913;51.910;8.374;2022-07-23T11:43:51;25.10;99.90
37002;DHT22;22913;51.910;8.374;2022-07-23T11:46:37;25.40;99.90
37002;DHT22;22913;51.910;8.374;2022-07-23T11:49:23;25.20;99.90
37002;DHT22;22913;51.910;8.374;2022-07-23T11:52:10;25.20;99.90
37002;DHT22;22913;51.910;8.374;2022-07-23T11:54:58;25.30;99.90
37002;DHT22;22913;51.910;8.374;2022-07-23T11:57:46;25.00;99.90
37002;DHT22;22913;51.910;8.374;2022-07-23T12:00:33;25.10;99.90
37002;DHT22;22913;51.910;8.374;2022-07-23T12:03:18;25.20;99.90
37002;DHT22;22913;51.910;8.374;2022-07-23T12:06:05;25.50;99.90
37002;DHT22;22913;51.910;8.374;2022-07-23T12:08:50;26.00;99.90
37002;DHT22;22913;51.910;8.374;2022-07-23T12:11:36;26.10;99.90
37002;DHT22;22913;51.910;8.374;2022-07-23T12:14:23;26.00;99.90
37002;DHT22;22913;51.910;8.374;2022-07-23T12:17:09;26.00;99.90
37002;DHT22;22913;51.910;8.374;2022-07-23T12:19:57;26.10;99.90
37002;DHT22;22913;51.910;8.374;2022-07-23T12:22:46;26.30;99.90
37002;DHT22;22913;51.910;8.374;2022-07-23T12:25:33;26.30;99.90
37002;DHT22;22913;51.910;8.374;2022-07-23T12:28:21;26.60;99.90
37002;DHT22;22913;51.910;8.374;2022-07-23T12:31:08;26.70;99.90
37002;DHT22;22913;51.910;8.374;2022-07-23T12:33:54;27.00;99.90
37002;DHT22;22913;51.910;8.374;2022-07-23T12:36:39;27.10;99.90
37002;DHT22;22913;51.910;8.374;2022-07-23T12:39:32;27.30;99.90
37002;DHT22;22913;51.910;8.374;2022-07-23T12:42:18;27.80;99.90
37002;DHT22;22913;51.910;8.374;2022-07-23T12:45:09;28.10;99.90
37002;DHT22;22913;51.910;8.374;2022-07-23T12:48:05;28.60;99.90
37002;DHT22;22913;51.910;8.374;2022-07-23T12:50:53;29.00;99.90
37002;DHT22;22913;51.910;8.374;2022-07-23T12:53:41;29.50;99.90
37002;DHT22;22913;51.910;8.374;2022-07-23T12:56:29;29.80;99.90
37002;DHT22;22913;51.910;8.374;2022-07-23T12:59:15;30.10;99.90
37002;DHT22;22913;51.910;8.374;2022-07-23T13:02:01;30.60;99.90
37002;DHT22;22913;51.910;8.374;2022-07-23T13:04:48;31.00;99.90
37002;DHT22;22913;51.910;8.374;2022-07-23T13:07:33;31.30;99.90
37002;DHT22;22913;51.910;8.374;2022-07-23T13:10:19;31.50;99.90
37002;DHT22;22913;51.910;8.374;2022-07-23T13:13:08;31.40;99.90
37002;DHT22;22913;51.910;8.374;2022-07-23T13:15:54;31.30;99.90
37002;DHT22;22913;51.910;8.374;2022-07-23T13:18:40;31.30;99.90
37002;DHT22;22913;51.910;8.374;2022-07-23T13:21:28;31.50;99.90
37002;DHT22;22913;51.910;8.374;2022-07-23T13:24:14;31.20;99.90
37002;DHT22;22913;51.910;8.374;2022-07-23T13:26:59;30.90;99.90
37002;DHT22;22913;51.910;8.374;2022-07-23T13:29:45;31.20;99.90
37002;DHT22;22913;51.910;8.374;2022-07-23T13:32:30;31.90;99.90
37002;DHT22;22913;51.910;8.374;2022-07-23T13:35:16;32.40;99.90
37002;DHT22;22913;51.910;8.374;2022-07-23T13:38:03;32.50;99.90
37002;DHT22;22913;51.910;8.374;2022-07-23T13:40:50;32.80;99.90
37002;DHT22;22913;51.910;8.374;2022-07-23T13:43:35;32.60;98.70
37002;DHT22;22913;51.910;8.374;2022-07-23T13:46:21;32.50;99.50
37002;DHT22;22913;51.910;8.374;2022-07-23T13:49:07;32.70;99.10
37002;DHT22;22913;51.910;8.374;2022-07-23T13:51:52;33.10;98.20
37002;DHT22;22913;51.910;8.374;2022-07-23T13:54:39;33.40;97.50
37002;DHT22;22913;51.910;8.374;2022-07-23T13:57:25;33.70;97.00
37002;DHT22;22913;51.910;8.374;2022-07-23T14:00:12;33.10;96.70
37002;DHT22;22913;51.910;8.374;2022-07-23T14:02:58;33.10;96.80
37002;DHT22;22913;51.910;8.374;2022-07-23T14:05:44;33.20;96.20
37002;DHT22;22913;51.910;8.374;2022-07-23T14:08:30;33.40;95.90
37002;DHT22;22913;51.910;8.374;2022-07-23T14:11:17;33.80;95.90
37002;DHT22;22913;51.910;8.374;2022-07-23T14:14:02;34.10;95.70
37002;DHT22;22913;51.910;8.374;2022-07-23T14:16:48;34.10;94.10
37002;DHT22;22913;51.910;8.374;2022-07-23T14:19:34;33.70;93.80
37002;DHT22;22913;51.910;8.374;2022-07-23T14:22:20;33.20;93.90
37002;DHT22;22913;51.910;8.374;2022-07-23T14:25:07;33.00;94.30
37002;DHT22;22913;51.910;8.374;2022-07-23T14:27:54;33.50;94.30
37002;DHT22;22913;51.910;8.374;2022-07-23T14:30:40;33.90;93.50
37002;DHT22;22913;51.910;8.374;2022-07-23T14:33:26;34.10;92.70
37002;DHT22;22913;51.910;8.374;2022-07-23T14:36:12;33.90;93.20
37002;DHT22;22913;51.910;8.374;2022-07-23T14:38:57;34.10;93.00
37002;DHT22;22913;51.910;8.374;2022-07-23T14:41:43;34.20;92.50
37002;DHT22;22913;51.910;8.374;2022-07-23T14:44:30;34.20;92.90
37002;DHT22;22913;51.910;8.374;2022-07-23T14:47:16;34.40;92.00
37002;DHT22;22913;51.910;8.374;2022-07-23T14:50:02;34.80;92.10
37002;DHT22;22913;51.910;8.374;2022-07-23T14:52:48;35.00;91.70
37002;DHT22;22913;51.910;8.374;2022-07-23T14:55:34;34.20;91.50
37002;DHT22;22913;51.910;8.374;2022-07-23T14:58:19;33.70;92.40
37002;DHT22;22913;51.910;8.374;2022-07-23T15:01:06;33.10;92.40
37002;DHT22;22913;51.910;8.374;2022-07-23T15:03:52;33.00;92.50
37002;DHT22;22913;51.910;8.374;2022-07-23T15:06:38;32.90;92.40
37002;DHT22;22913;51.910;8.374;2022-07-23T15:09:24;33.00;92.30
37002;DHT22;22913;51.910;8.374;2022-07-23T15:12:09;33.40;92.30
37002;DHT22;22913;51.910;8.374;2022-07-23T15:14:55;33.70;92.30
37002;DHT22;22913;51.910;8.374;2022-07-23T15:17:42;33.90;92.00
37002;DHT22;22913;51.910;8.374;2022-07-23T15:20:27;33.70;91.00
37002;DHT22;22913;51.910;8.374;2022-07-23T15:23:13;33.80;91.40
37002;DHT22;22913;51.910;8.374;2022-07-23T15:25:58;33.90;91.00
37002;DHT22;22913;51.910;8.374;2022-07-23T15:28:44;34.20;90.80
37002;DHT22;22913;51.910;8.374;2022-07-23T15:31:29;34.40;90.70
37002;DHT22;22913;51.910;8.374;2022-07-23T15:34:16;34.40;90.60
37002;DHT22;22913;51.910;8.374;2022-07-23T15:37:02;34.50;90.40
37002;DHT22;22913;51.910;8.374;2022-07-23T15:39:49;34.50;90.30
37002;DHT22;22913;51.910;8.374;2022-07-23T15:42:35;34.70;90.10
37002;DHT22;22913;51.910;8.374;2022-07-23T15:45:21;34.90;90.20
37002;DHT22;22913;51.910;8.374;2022-07-23T15:48:06;34.50;89.70
37002;DHT22;22913;51.910;8.374;2022-07-23T15:50:54;33.90;90.10
37002;DHT22;22913;51.910;8.374;2022-07-23T15:53:39;33.80;90.20
37002;DHT22;22913;51.910;8.374;2022-07-23T15:56:25;33.90;90.20
37002;DHT22;22913;51.910;8.374;2022-07-23T15:59:11;33.90;90.10
37002;DHT22;22913;51.910;8.374;2022-07-23T16:01:57;34.00;90.40
37002;DHT22;22913;51.910;8.374;2022-07-23T16:04:42;34.10;90.10
37002;DHT22;22913;51.910;8.374;2022-07-23T16:07:29;33.90;89.30
37002;DHT22;22913;51.910;8.374;2022-07-23T16:10:16;34.00;89.60
37002;DHT22;22913;51.910;8.374;2022-07-23T16:13:02;33.80;88.60
37002;DHT22;22913;51.910;8.374;2022-07-23T16:15:47;33.40;90.00
37002;DHT22;22913;51.910;8.374;2022-07-23T16:18:33;33.20;90.10
37002;DHT22;22913;51.910;8.374;2022-07-23T16:21:19;33.10;90.60
37002;DHT22;22913;51.910;8.374;2022-07-23T16:24:07;33.10;90.60
37002;DHT22;22913;51.910;8.374;2022-07-23T16:26:52;33.20;90.50
37002;DHT22;22913;51.910;8.374;2022-07-23T16:29:38;33.10;90.70
37002;DHT22;22913;51.910;8.374;2022-07-23T16:32:23;33.00;90.50
37002;DHT22;22913;51.910;8.374;2022-07-23T16:35:09;32.80;90.40
37002;DHT22;22913;51.910;8.374;2022-07-23T16:37:55;32.80;90.50
37002;DHT22;22913;51.910;8.374;2022-07-23T16:40:45;32.70;90.90
37002;DHT22;22913;51.910;8.374;2022-07-23T16:43:31;32.60;91.10
37002;DHT22;22913;51.910;8.374;2022-07-23T16:46:17;32.70;90.80
37002;DHT22;22913;51.910;8.374;2022-07-23T16:49:03;32.60;90.90
37002;DHT22;22913;51.910;8.374;2022-07-23T16:51:50;32.50;90.70
37002;DHT22;22913;51.910;8.374;2022-07-23T16:54:35;32.20;91.30
37002;DHT22;22913;51.910;8.374;2022-07-23T16:57:23;31.80;91.40
37002;DHT22;22913;51.910;8.374;2022-07-23T17:00:09;31.60;92.10
37002;DHT22;22913;51.910;8.374;2022-07-23T17:02:55;31.70;92.10
37002;DHT22;22913;51.910;8.374;2022-07-23T17:05:41;31.80;91.80
37002;DHT22;22913;51.910;8.374;2022-07-23T17:08:27;31.70;91.70
37002;DHT22;22913;51.910;8.374;2022-07-23T17:11:13;31.40;91.70
37002;DHT22;22913;51.910;8.374;2022-07-23T17:14:00;31.30;92.30
37002;DHT22;22913;51.910;8.374;2022-07-23T17:16:46;31.30;92.10
37002;DHT22;22913;51.910;8.374;2022-07-23T17:19:31;31.20;92.10
37002;DHT22;22913;51.910;8.374;2022-07-23T17:22:17;31.20;92.30
37002;DHT22;22913;51.910;8.374;2022-07-23T17:25:03;31.20;92.40
37002;DHT22;22913;51.910;8.374;2022-07-23T17:27:53;30.90;93.10
37002;DHT22;22913;51.910;8.374;2022-07-23T17:30:40;30.60;93.00
37002;DHT22;22913;51.910;8.374;2022-07-23T17:33:26;30.40;93.30
37002;DHT22;22913;51.910;8.374;2022-07-23T17:36:11;30.50;93.60